x

South Kodiak - 310nm Ssw Of Kodiak, Ak (46066) Wave Buoy

12:50pm - Tue 27th Sep 2016 All times are UTC.

  • Sig Wave height 9.8ft
  • Swell Direction
  • Peak Period 10s
  • Average Period 8s
  • Wind
    16mph, 20mph gusts
  • Sea Temp 54°f
  • Air Temp 52°f
  • Sea Pressure 1014.9mb

More Historic Weather Station data

Upgrade to MSW Pro to gain access to the past 30 days of data for over 8000 Wavebouys and Weather Stations around the globe.

Join Pro

Comparision Forecast

View Surf forecast
   
Tue 09/27 12:50pm 10ft 10s 8s 16 20 mph 1014.9mb 54f 52f
11:50am 10ft 10s 8s 16 18 mph 1014.5mb 54f 52f
9:50am 9ft 9s 7s 20 25 mph 1013.7mb 54f 51f
8:50am 9ft 10s 7s 16 22 mph 1013.6mb 54f 52f
7:50am 9ft 8s 7s 18 20 mph 1013.4mb 54f 52f
6:50am 9.5ft 10s 7s 16 18 mph 1013.2mb 54f 51f
5:50am 10ft 8s 7s 18 22 mph 1012.6mb 55f 53f
4:50am 10ft 9s 7s 18 20 mph 1012.2mb 55f 53f
3:50am 11ft 9s 7s 20 22 mph 1011.9mb 55f 54f
2:50am 10.5ft 8s 7s 20 25 mph 1011.6mb 55f 54f
1:50am 10.5ft 8s 7s 22 27 mph 1011.3mb 55f 54f
12:50am 10ft 8s 6s 22 29 mph 1011.8mb 55f 53f
Mon 09/26 11:50pm 9ft 8s 6s 27 29 mph 1012.6mb 55f 51f
10:50pm 8ft 8s 6s 27 34 mph 1013.5mb 55f 52f
9:50pm 8.5ft 8s 6s 27 34 mph 1014.2mb 55f 53f
8:50pm 7.5ft 7s 6s 25 31 mph 1015.2mb 55f 52f
7:50pm 7ft 7s  -  27 31 mph 1015.6mb 55f 53f
6:50pm 6ft 6s 5s 27 31 mph 1016mb 55f 53f
5:50pm 6ft 6s 5s 20 25 mph 1016.6mb 55f 52f
4:50pm 6ft 5s 5s 20 25 mph 1017mb 55f 52f
3:50pm 6ft 7s 5s 22 27 mph 1017.3mb 55f 52f
2:50pm 5.5ft 16s 6s 20 25 mph 1017.8mb 55f 53f
1:50pm 6ft 6s 5s 18 22 mph 1018.2mb 55f 52f
12:50pm 5.5ft 16s 5s 20 22 mph 1018.5mb 55f 52f
11:50am 5.5ft 17s 6s 18 22 mph 1018.8mb 55f 52f
10:50am 5ft 16s 6s 18 20 mph 1019.2mb 55f 52f
9:50am 5ft 17s 6s 18 22 mph 1019.4mb 55f 52f
8:50am 5ft 8s 6s 16 20 mph 1019.6mb 55f 52f
7:50am 5ft 17s 6s 18 20 mph 1019.7mb 55f 51f
6:50am 5ft 17s 6s 13 18 mph 1019.9mb 55f 51f
5:50am 5ft 8s 6s 16 18 mph 1019.7mb 55f 52f
4:50am 5.5ft 8s 6s 18 20 mph 1019.5mb 55f 52f
3:50am 6ft 8s 6s 16 18 mph 1019.4mb 55f 52f
2:50am 6ft 8s 6s 16 20 mph 1019.2mb 55f 52f
1:50am 6ft 8s 6s 18 20 mph 1019.1mb 55f 52f
12:50am 5.5ft 17s 6s 18 22 mph 1019.2mb 55f 53f
Sun 09/25 11:50pm 5ft 17s 6s 16 20 mph 1019mb 55f 52f
10:50pm 5ft 8s 5s 16 20 mph 1018.9mb 55f 52f
9:50pm 4.5ft 8s 6s 16 20 mph 1018.7mb 55f 52f
8:50pm 4.5ft 17s 6s 11 13 mph 1018.7mb 55f 52f
7:50pm 4.5ft 8s 5s 13 18 mph 1018.3mb 55f 51f
6:50pm  -   -   -  9 13 mph 1017.9mb 55f 50f
4:50pm 5ft 16s 6s 16 18 mph 1016.8mb 55f 52f
3:50pm 4.5ft 9s 6s 13 18 mph 1016.5mb 55f 52f
2:50pm 5ft 17s 6s 16 18 mph 1016.3mb 55f 52f
1:50pm 4.5ft 8s 6s 13 18 mph 1016mb 55f 53f
12:50pm 5ft 17s 6s 16 18 mph 1015.7mb 55f 53f
11:50am 4.5ft 8s 6s 16 20 mph 1015.6mb 55f 53f
10:50am 4.5ft 8s 6s 16 18 mph 1015.3mb 55f 53f
9:50am 4.5ft 8s 6s 13 16 mph 1015.1mb 55f 53f
8:50am 4.5ft 8s 6s 11 13 mph 1014.8mb 55f 53f
7:50am 4.5ft 8s 6s 11 13 mph 1014.5mb 55f 53f
6:50am 4.5ft 8s 6s 13 16 mph 1014.3mb 55f 53f
5:50am 5ft 8s 6s 13 18 mph 1013.8mb 55f 52f
4:50am 5ft 8s 6s 13 16 mph 1013.2mb 55f 53f
3:50am 5ft 9s 6s 11 13 mph 1012.7mb 55f 53f
2:50am 5ft 9s 6s 11 16 mph 1012.5mb 55f 53f
1:50am 5.5ft 8s 7s 13 16 mph 1012.3mb 55f 53f
12:50am 6ft 8s 7s 11 13 mph 1012.2mb 55f 53f
Sat 09/24 11:50pm 5ft 9s 7s 11 13 mph 1012.1mb 55f 54f
10:50pm 5.5ft 8s 7s 11 13 mph 1012.1mb 55f 53f
9:50pm 5ft 8s 7s 11 13 mph 1011.9mb 55f 53f
8:50pm 5ft 9s 7s 11 13 mph 1011.5mb 55f 54f
7:50pm 5ft 8s 7s 7 11 mph 1011.1mb 55f 53f
6:50pm 5.5ft 9s 6s 7 9 mph 1010.5mb 55f 53f
5:50pm 5ft 8s 6s 9 11 mph 1009.9mb 55f 53f
4:50pm 6ft 9s 6s 11 13 mph 1009.4mb 55f 53f
3:50pm 6ft 8s 6s 9 11 mph 1009mb 55f 52f
2:50pm 6ft 9s 6s 11 13 mph 1008.6mb 55f 53f
1:50pm 6ft 9s 6s 9 11 mph 1008.3mb 55f 52f
12:50pm 6.5ft 8s 6s 11 13 mph 1007.9mb 55f 52f
11:50am 6.5ft 8s 7s 16 18 mph 1007.7mb 55f 53f
9:50am 6.5ft 9s 7s 13 16 mph 1007.5mb 55f 53f
8:50am 6.5ft 8s 7s 13 16 mph 1007.2mb 55f 53f
7:50am 7ft 8s 7s 16 18 mph 1006.7mb 55f 53f
6:50am 6.5ft 8s 7s 16 18 mph 1006.3mb 55f 53f
5:50am 6ft 8s 6s 13 18 mph 1005.8mb 55f 53f
4:50am 7ft 9s 6s 16 18 mph 1005.3mb 55f 52f
3:50am 6.5ft 9s 6s 13 18 mph 1004.8mb 55f 53f
2:50am 7ft 9s 6s 16 20 mph 1004.4mb 55f 53f
1:50am 7ft 8s 6s 18 22 mph 1004mb 55f 53f
12:50am 8ft 9s 7s 16 18 mph 1004mb 55f 53f
Fri 09/23 11:50pm 7.5ft 8s 7s 13 18 mph 1003.7mb 55f 53f
10:50pm 7.5ft 9s 7s 16 18 mph 1003.6mb 55f 53f
9:50pm 8ft 9s 7s 13 16 mph 1003.6mb 55f 53f
8:50pm 8ft 9s 7s 16 18 mph 1003mb 55f 53f
7:50pm 7.5ft 9s 7s 13 18 mph 1002.7mb 55f 53f
5:50pm 7ft 8s 7s 18 20 mph 1001.7mb 55f 53f
4:50pm  -   -   -  11 16 mph 1001.7mb 55f 51f
3:50pm 7.5ft 9s 7s 18 22 mph 1001.1mb 55f 52f
2:50pm 9ft 9s 7s 20 25 mph 1000.9mb 55f 53f